Terminal Aerodrome Forecast
Issued by NWS

Home | Current Version | Previous Version | Text Only | Print | Product List | Glossary On
Versions: 1 2 3 4 5 6 7 8 9 10 11 12 13 14 15 16 17 18 19 20 21 22 23 24 25
000
FTUS44 KLZK 251548 AAD
TAFBPK
TAF AMD
KBPK 251548Z 2516/2612 VRB06KT P6SM VCSH SCT012 BKN035 OVC070
      TEMPO 2516/2518 4SM -RA BR SCT015
     FM251800 24012G18KT P6SM VCSH OVC050
     FM252100 25009G18KT P6SM OVC050=

USA.gov is the U.S. government's official web portal to all federal, state and local government web resources and services.